createdAt,value
2023-03-30T00:01:17.291Z,66.37
2023-03-30T00:03:47.960Z,66.22
2023-03-30T00:06:23.208Z,66.77
2023-03-30T00:08:58.202Z,66.73
2023-03-30T00:11:27.956Z,66.07
2023-03-30T00:13:57.434Z,66.13
2023-03-30T00:16:28.721Z,66.76
2023-03-30T00:18:58.519Z,67.28
2023-03-30T00:21:28.273Z,67.35
2023-03-30T00:24:01.102Z,66.91
2023-03-30T00:26:29.896Z,67.70
2023-03-30T00:28:58.317Z,67.85
2023-03-30T00:31:27.335Z,68.34
2023-03-30T00:33:56.318Z,68.69
2023-03-30T00:36:26.167Z,69.08
2023-03-30T00:38:55.377Z,68.86
2023-03-30T00:41:26.397Z,69.13
2023-03-30T00:43:58.140Z,69.29
2023-03-30T00:46:27.251Z,69.52
2023-03-30T00:48:58.906Z,69.82
2023-03-30T00:51:28.026Z,71.19
2023-03-30T00:54:01.829Z,70.46
2023-03-30T00:56:32.219Z,70.41
2023-03-30T00:59:03.812Z,70.74
2023-03-30T01:01:39.070Z,70.28
2023-03-30T01:04:11.245Z,70.85
2023-03-30T01:06:43.617Z,71.12
2023-03-30T01:09:12.537Z,70.82
2023-03-30T01:11:43.770Z,71.14
2023-03-30T01:14:16.450Z,71.59
2023-03-30T01:16:53.126Z,71.70
2023-03-30T01:19:48.741Z,72.81
2023-03-30T01:22:38.651Z,72.86
2023-03-30T01:25:31.130Z,72.76
2023-03-30T01:28:15.741Z,73.71
2023-03-30T01:31:06.853Z,73.26
2023-03-30T01:33:56.057Z,72.98
2023-03-30T01:36:58.096Z,74.48
2023-03-30T01:39:33.855Z,75.57
2023-03-30T01:42:12.257Z,74.39
2023-03-30T01:44:50.262Z,74.09
2023-03-30T01:47:24.838Z,74.07
2023-03-30T01:50:00.466Z,74.18
2023-03-30T01:52:37.112Z,74.59
2023-03-30T01:55:14.918Z,74.53
2023-03-30T01:57:49.238Z,74.72
2023-03-30T02:00:21.342Z,74.22
2023-03-30T02:02:54.796Z,74.83
2023-03-30T02:05:25.001Z,74.53
2023-03-30T02:08:02.042Z,74.86
2023-03-30T02:10:34.825Z,75.00
2023-03-30T02:13:04.648Z,75.44
2023-03-30T02:15:37.326Z,75.60
2023-03-30T02:18:06.657Z,75.89
2023-03-30T02:20:36.429Z,75.49
2023-03-30T02:23:06.775Z,75.59
2023-03-30T02:25:39.162Z,75.83
2023-03-30T02:28:09.389Z,75.44
2023-03-30T02:30:41.890Z,75.26
2023-03-30T02:33:17.592Z,75.43
2023-03-30T02:36:03.321Z,75.39
2023-03-30T02:39:07.470Z,76.11
2023-03-30T02:42:16.805Z,76.51
2023-03-30T02:44:49.697Z,75.48
2023-03-30T02:47:26.262Z,76.33
2023-03-30T02:50:01.011Z,76.06
2023-03-30T02:52:47.298Z,76.20
2023-03-30T02:55:22.528Z,76.19
2023-03-30T02:58:31.801Z,76.78
2023-03-30T03:01:33.807Z,77.03
2023-03-30T03:04:15.675Z,76.77
2023-03-30T03:07:07.498Z,77.55
2023-03-30T03:09:36.922Z,77.78
2023-03-30T03:12:07.225Z,78.21
2023-03-30T03:14:41.521Z,78.22
2023-03-30T03:17:10.277Z,78.14
2023-03-30T03:19:44.955Z,77.51
2023-03-30T03:22:16.123Z,77.82
2023-03-30T03:24:44.965Z,78.21
2023-03-30T03:27:16.594Z,81.07
2023-03-30T03:30:09.146Z,78.33
2023-03-30T03:32:44.490Z,78.19
2023-03-30T03:35:14.571Z,77.88
2023-03-30T03:37:43.235Z,78.50
2023-03-30T03:40:16.766Z,78.62
2023-03-30T03:42:46.134Z,78.54
2023-03-30T03:45:17.445Z,79.68
2023-03-30T03:47:55.742Z,79.62
2023-03-30T03:50:37.063Z,80.04
2023-03-30T03:53:05.984Z,80.42
2023-03-30T03:55:36.021Z,80.57
2023-03-30T03:58:05.901Z,81.06
2023-03-30T04:00:39.469Z,80.46
2023-03-30T04:03:09.205Z,80.64
2023-03-30T04:05:38.132Z,80.74
2023-03-30T04:08:11.046Z,80.87
2023-03-30T04:10:42.722Z,80.79
2023-03-30T04:13:20.548Z,80.60
2023-03-30T04:16:10.144Z,81.12
2023-03-30T04:19:00.086Z,81.29
2023-03-30T04:21:50.801Z,81.30
2023-03-30T04:24:37.805Z,81.31
2023-03-30T04:27:26.058Z,81.53
2023-03-30T04:29:57.951Z,84.74
2023-03-30T04:32:41.383Z,81.14
2023-03-30T04:35:14.877Z,80.87
2023-03-30T04:38:02.376Z,81.25
2023-03-30T04:40:40.009Z,81.35
2023-03-30T04:43:21.632Z,81.57
2023-03-30T04:46:10.681Z,81.61
2023-03-30T04:49:06.237Z,81.57
2023-03-30T04:51:54.819Z,82.00
2023-03-30T04:54:46.686Z,81.66
2023-03-30T04:57:34.076Z,82.19
2023-03-30T05:00:12.384Z,82.25
2023-03-30T05:03:22.385Z,82.60
2023-03-30T05:08:52.587Z,82.32
2023-03-30T05:11:40.164Z,82.35
2023-03-30T05:14:20.151Z,81.92
2023-03-30T05:17:07.661Z,81.53
2023-03-30T05:19:53.763Z,81.35
2023-03-30T05:22:47.132Z,80.55
2023-03-30T05:25:35.542Z,80.58
2023-03-30T05:28:23.913Z,80.08
2023-03-30T05:31:12.422Z,79.94
2023-03-30T05:33:52.351Z,79.73
2023-03-30T05:36:21.499Z,78.60
2023-03-30T05:39:23.515Z,79.32
2023-03-30T05:42:05.876Z,78.95
2023-03-30T05:44:52.044Z,79.21
2023-03-30T05:47:38.854Z,79.35
2023-03-30T05:50:14.275Z,79.06
2023-03-30T05:52:56.758Z,79.09
2023-03-30T05:55:34.660Z,78.98
2023-03-30T05:58:25.304Z,79.50
2023-03-30T06:01:10.735Z,78.98
2023-03-30T06:03:42.807Z,79.39
2023-03-30T06:06:13.848Z,78.85
2023-03-30T06:08:43.457Z,79.08
2023-03-30T06:11:17.398Z,79.05
2023-03-30T06:14:11.555Z,78.38
2023-03-30T06:16:43.208Z,78.64
2023-03-30T06:19:15.947Z,79.35
2023-03-30T06:21:46.615Z,78.54
2023-03-30T06:24:27.240Z,78.43
2023-03-30T06:26:57.059Z,78.51
2023-03-30T06:29:28.539Z,78.11
2023-03-30T06:31:57.493Z,78.07
2023-03-30T06:34:58.110Z,77.99
2023-03-30T06:37:29.002Z,76.65
2023-03-30T06:39:57.759Z,76.13
2023-03-30T06:42:28.135Z,76.02
2023-03-30T06:45:21.622Z,75.25
2023-03-30T06:47:50.523Z,75.16
2023-03-30T06:50:19.613Z,75.58
2023-03-30T06:53:11.201Z,75.44
2023-03-30T06:55:44.708Z,74.10
2023-03-30T06:58:22.206Z,73.41
2023-03-30T07:00:53.043Z,72.67
2023-03-30T07:03:30.094Z,72.40
2023-03-30T07:06:22.780Z,72.10
2023-03-30T07:08:51.810Z,72.09
2023-03-30T07:11:24.252Z,71.10
2023-03-30T07:13:56.340Z,70.37
2023-03-30T07:16:26.520Z,70.95
2023-03-30T07:18:55.939Z,70.53
2023-03-30T07:21:26.425Z,71.08
2023-03-30T07:23:55.108Z,71.14
2023-03-30T07:26:33.050Z,70.29
2023-03-30T07:29:07.642Z,70.55
2023-03-30T07:31:40.351Z,70.98
2023-03-30T07:34:11.454Z,70.10
2023-03-30T07:36:45.882Z,69.89
2023-03-30T07:39:14.912Z,70.06
2023-03-30T07:41:47.320Z,70.08
2023-03-30T07:44:16.059Z,70.12
2023-03-30T07:46:46.608Z,69.50
2023-03-30T07:49:21.779Z,69.41
2023-03-30T07:51:50.935Z,68.63
2023-03-30T07:54:27.209Z,69.29
2023-03-30T07:57:19.638Z,70.32
2023-03-30T07:59:48.276Z,70.05
2023-03-30T08:02:31.931Z,70.10
2023-03-30T08:05:01.407Z,69.79
2023-03-30T08:07:43.178Z,69.58
2023-03-30T08:10:19.019Z,70.55
2023-03-30T08:12:47.761Z,70.61
2023-03-30T08:15:16.355Z,70.21
2023-03-30T08:17:46.310Z,71.14
2023-03-30T08:20:16.171Z,71.33
2023-03-30T08:22:44.912Z,71.11
2023-03-30T08:25:14.015Z,71.45
2023-03-30T08:27:42.600Z,71.69
2023-03-30T08:30:14.681Z,72.07
2023-03-30T08:32:43.524Z,72.24
2023-03-30T08:35:14.182Z,72.10
2023-03-30T08:37:43.134Z,72.76
2023-03-30T08:40:19.022Z,73.14
2023-03-30T08:43:19.467Z,72.92
2023-03-30T08:45:48.918Z,73.27
2023-03-30T08:48:21.306Z,72.89
2023-03-30T08:50:58.188Z,73.00
2023-03-30T08:53:29.351Z,72.96
2023-03-30T08:56:02.873Z,73.27
2023-03-30T08:58:40.188Z,73.11
2023-03-30T09:01:19.880Z,72.34
2023-03-30T09:04:09.321Z,72.02
2023-03-30T09:06:49.604Z,72.20
2023-03-30T09:09:21.028Z,71.21
2023-03-30T09:11:55.054Z,69.71
2023-03-30T09:14:34.088Z,68.20
2023-03-30T09:17:10.201Z,66.96
2023-03-30T09:19:49.570Z,66.00
2023-03-30T09:22:21.077Z,65.34
2023-03-30T09:24:51.753Z,65.00
2023-03-30T09:27:29.462Z,64.73
2023-03-30T09:30:08.625Z,64.27
2023-03-30T09:32:43.473Z,64.81
2023-03-30T09:35:16.159Z,63.91
2023-03-30T09:37:46.963Z,64.13
2023-03-30T09:40:28.397Z,64.38
2023-03-30T09:43:03.119Z,64.15
2023-03-30T09:45:34.737Z,63.95
2023-03-30T09:48:08.965Z,64.96
2023-03-30T09:50:42.835Z,64.85
2023-03-30T09:53:24.936Z,65.03
2023-03-30T09:56:02.291Z,64.60
2023-03-30T09:58:33.084Z,65.16
2023-03-30T10:01:09.447Z,64.81
2023-03-30T10:03:40.291Z,64.72
2023-03-30T10:06:13.196Z,63.71
2023-03-30T10:08:50.709Z,63.53
2023-03-30T10:11:31.430Z,63.10
2023-03-30T10:14:01.076Z,62.66
2023-03-30T10:16:33.324Z,61.73
2023-03-30T10:19:04.312Z,61.31
2023-03-30T10:21:40.377Z,59.88
2023-03-30T10:24:23.539Z,60.32
2023-03-30T10:26:54.261Z,58.80
2023-03-30T10:29:25.031Z,58.09
2023-03-30T10:32:00.093Z,56.94
2023-03-30T10:34:37.793Z,53.48
2023-03-30T10:37:11.013Z,51.88
2023-03-30T10:39:43.985Z,49.84
2023-03-30T10:42:18.115Z,51.44
2023-03-30T10:44:50.718Z,52.07
2023-03-30T10:47:38.955Z,51.00
2023-03-30T10:50:17.322Z,51.32
2023-03-30T10:52:59.334Z,50.00
2023-03-30T10:55:41.819Z,47.48
2023-03-30T10:58:26.422Z,47.39
2023-03-30T11:01:05.277Z,49.59
2023-03-30T11:03:37.846Z,49.24
2023-03-30T11:06:15.339Z,47.20
2023-03-30T11:08:48.232Z,47.13
2023-03-30T11:11:25.166Z,47.36
2023-03-30T11:14:03.247Z,48.89
2023-03-30T11:16:40.643Z,47.63
2023-03-30T11:19:17.403Z,47.69
2023-03-30T11:21:57.839Z,48.60
2023-03-30T11:24:29.557Z,49.42
2023-03-30T11:27:08.384Z,50.85
2023-03-30T11:29:43.990Z,51.69
2023-03-30T11:32:26.232Z,51.61
2023-03-30T11:35:07.615Z,51.09
2023-03-30T11:37:42.685Z,50.07
2023-03-30T11:40:19.232Z,48.63
2023-03-30T11:42:51.018Z,48.77
2023-03-30T11:45:40.569Z,48.19
2023-03-30T11:48:27.127Z,48.41
2023-03-30T11:51:09.175Z,46.72
2023-03-30T11:53:42.115Z,46.25
2023-03-30T11:56:13.221Z,51.31
2023-03-30T11:58:48.231Z,51.86
2023-03-30T12:01:35.539Z,50.06
2023-03-30T12:04:11.119Z,54.26
2023-03-30T12:06:42.133Z,55.65
2023-03-30T12:09:25.019Z,55.76
2023-03-30T12:11:58.072Z,57.86
2023-03-30T12:15:11.662Z,56.88
2023-03-30T12:17:48.961Z,59.31
2023-03-30T12:20:30.297Z,58.32
2023-03-30T12:23:06.184Z,59.66
2023-03-30T12:25:42.279Z,60.59
2023-03-30T12:28:13.379Z,61.06
2023-03-30T12:30:55.124Z,60.16
2023-03-30T12:33:28.283Z,59.74
2023-03-30T12:35:59.919Z,61.90
2023-03-30T12:38:38.538Z,61.99
2023-03-30T12:41:18.659Z,62.95
2023-03-30T12:44:32.682Z,63.06
2023-03-30T12:47:20.105Z,62.83
2023-03-30T12:50:01.801Z,64.32
2023-03-30T12:52:43.151Z,63.83
2023-03-30T12:55:43.135Z,64.32
2023-03-30T12:58:50.272Z,64.63
2023-03-30T13:01:32.249Z,65.07
2023-03-30T13:04:07.888Z,65.25
2023-03-30T13:06:38.412Z,64.74
2023-03-30T13:09:52.532Z,65.53
2023-03-30T13:12:31.957Z,65.57
2023-03-30T13:15:08.371Z,65.45
2023-03-30T13:17:58.769Z,65.50
2023-03-30T13:20:34.419Z,65.70
2023-03-30T13:23:32.396Z,65.48
2023-03-30T13:26:08.032Z,65.18
2023-03-30T13:28:48.914Z,65.40
2023-03-30T13:31:37.987Z,65.68
2023-03-30T13:34:19.120Z,65.73
2023-03-30T13:37:01.283Z,65.93
2023-03-30T13:39:40.534Z,66.06
2023-03-30T13:42:34.580Z,66.91
2023-03-30T13:45:10.800Z,66.39
2023-03-30T13:47:57.509Z,66.42
2023-03-30T13:50:31.315Z,66.51
2023-03-30T13:53:05.577Z,66.65
2023-03-30T13:55:38.734Z,66.53
2023-03-30T13:58:14.130Z,66.53
2023-03-30T14:00:49.207Z,65.76
2023-03-30T14:03:29.403Z,64.63
2023-03-30T14:06:04.236Z,63.44
2023-03-30T14:08:37.295Z,61.95
2023-03-30T14:11:15.518Z,61.09
2023-03-30T14:13:45.161Z,61.75
2023-03-30T14:16:21.145Z,62.12
2023-03-30T14:18:51.152Z,62.95
2023-03-30T14:21:22.266Z,63.31
2023-03-30T14:23:54.336Z,63.74
2023-03-30T14:26:26.538Z,62.69
2023-03-30T14:28:55.383Z,62.38
2023-03-30T14:31:24.210Z,63.85
2023-03-30T14:33:53.088Z,64.16
2023-03-30T14:36:23.206Z,64.23
2023-03-30T14:38:55.135Z,64.79
2023-03-30T14:41:27.652Z,65.42
2023-03-30T14:44:01.557Z,66.35
2023-03-30T14:46:39.183Z,66.57
2023-03-30T14:49:09.238Z,66.94
2023-03-30T14:51:40.756Z,67.31
2023-03-30T14:54:14.249Z,68.33
2023-03-30T14:56:45.516Z,68.70
2023-03-30T14:59:16.169Z,69.15
2023-03-30T15:01:45.490Z,69.92
2023-03-30T15:04:17.343Z,71.24
2023-03-30T15:06:48.818Z,72.45
2023-03-30T15:09:21.219Z,73.39
2023-03-30T15:11:54.432Z,75.13
2023-03-30T15:14:24.468Z,75.89
2023-03-30T15:16:56.778Z,76.43
2023-03-30T15:19:30.074Z,76.74
2023-03-30T15:22:03.311Z,76.55
2023-03-30T15:24:38.115Z,76.33
2023-03-30T15:27:11.868Z,75.78
2023-03-30T15:29:42.148Z,75.25
2023-03-30T15:32:16.919Z,75.64
2023-03-30T15:35:07.129Z,76.19
2023-03-30T15:37:36.987Z,75.51
2023-03-30T15:40:29.056Z,77.02
2023-03-30T15:43:13.101Z,76.65
2023-03-30T15:45:47.561Z,75.90
2023-03-30T15:48:20.046Z,76.50
2023-03-30T15:50:54.257Z,76.50
2023-03-30T15:53:34.470Z,77.08
2023-03-30T15:56:05.083Z,77.34
2023-03-30T15:58:35.991Z,77.05
2023-03-30T16:01:06.293Z,77.16
2023-03-30T16:03:40.656Z,77.05
2023-03-30T16:06:14.964Z,77.64
2023-03-30T16:08:45.414Z,77.44
2023-03-30T16:11:17.121Z,77.45
2023-03-30T16:13:49.549Z,77.72
2023-03-30T16:16:19.107Z,77.55
2023-03-30T16:18:48.803Z,77.90
2023-03-30T16:21:19.214Z,77.24
2023-03-30T16:23:49.360Z,77.82
2023-03-30T16:26:20.006Z,77.48
2023-03-30T16:28:52.383Z,77.71
2023-03-30T16:31:23.890Z,77.54
2023-03-30T16:33:53.154Z,78.00
2023-03-30T16:36:24.226Z,77.81
2023-03-30T16:38:55.309Z,78.25
2023-03-30T16:41:25.856Z,78.30
2023-03-30T16:43:54.580Z,77.77
2023-03-30T16:46:24.390Z,78.02
2023-03-30T16:48:53.158Z,78.16
2023-03-30T16:51:22.864Z,78.03
2023-03-30T16:53:52.099Z,78.16
2023-03-30T16:56:21.954Z,78.85
2023-03-30T16:58:52.144Z,78.78
2023-03-30T17:01:21.776Z,79.33
2023-03-30T17:03:50.542Z,78.82
2023-03-30T17:06:19.133Z,79.08
2023-03-30T17:08:48.716Z,78.80
2023-03-30T17:11:18.432Z,78.22
2023-03-30T17:13:49.150Z,78.47
2023-03-30T17:16:20.128Z,79.00
2023-03-30T17:18:48.826Z,79.39
2023-03-30T17:21:18.568Z,79.15
2023-03-30T17:23:48.111Z,79.71
2023-03-30T17:26:17.614Z,79.47
2023-03-30T17:28:46.595Z,79.93
2023-03-30T17:31:19.233Z,80.05
2023-03-30T17:33:48.836Z,79.81
2023-03-30T17:36:19.786Z,79.77
2023-03-30T17:38:49.347Z,79.88
2023-03-30T17:41:19.720Z,79.93
2023-03-30T17:43:48.905Z,79.79
2023-03-30T17:46:20.808Z,80.22
2023-03-30T17:48:51.260Z,80.80
2023-03-30T17:51:20.732Z,79.62
2023-03-30T17:53:49.246Z,79.76
2023-03-30T17:56:17.978Z,79.52
2023-03-30T17:58:46.634Z,80.04
2023-03-30T18:01:17.150Z,80.22
2023-03-30T18:03:47.200Z,79.99
2023-03-30T18:06:16.607Z,79.91
2023-03-30T18:08:45.362Z,80.43
2023-03-30T18:11:14.611Z,80.36
2023-03-30T18:13:43.259Z,80.66
2023-03-30T18:16:13.346Z,80.51
2023-03-30T18:18:42.167Z,80.44
2023-03-30T18:21:13.160Z,80.83
2023-03-30T18:23:42.325Z,81.51
2023-03-30T18:26:14.001Z,81.39
2023-03-30T18:28:44.486Z,81.35
2023-03-30T18:31:13.968Z,81.29
2023-03-30T18:33:42.482Z,81.80
2023-03-30T18:36:15.831Z,82.47
2023-03-30T18:38:45.123Z,82.52
2023-03-30T18:41:15.360Z,82.88
2023-03-30T18:43:47.048Z,82.86
2023-03-30T18:46:18.245Z,83.61
2023-03-30T18:48:47.369Z,83.72
2023-03-30T18:51:17.642Z,83.56
2023-03-30T18:53:46.770Z,84.07
2023-03-30T18:56:15.940Z,84.46
2023-03-30T18:58:44.950Z,84.35
2023-03-30T19:01:17.862Z,84.51
2023-03-30T19:03:46.927Z,84.23
2023-03-30T19:06:22.977Z,84.62
2023-03-30T19:08:52.136Z,84.79
2023-03-30T19:11:23.656Z,84.64
2023-03-30T19:13:53.797Z,84.66
2023-03-30T19:16:23.490Z,84.70
2023-03-30T19:18:53.867Z,85.22
2023-03-30T19:21:24.890Z,85.57
2023-03-30T19:23:55.209Z,86.49
2023-03-30T19:26:24.059Z,88.08
2023-03-30T19:28:52.711Z,90.24
2023-03-30T19:31:22.431Z,91.38
2023-03-30T19:33:52.294Z,94.40
2023-03-30T19:36:23.286Z,97.19
2023-03-30T19:38:55.256Z,98.81
2023-03-30T19:41:24.025Z,100.00
2023-03-30T19:43:52.647Z,100.00
2023-03-30T19:46:22.241Z,100.00
2023-03-30T19:48:51.079Z,100.00
2023-03-30T19:51:20.264Z,100.00
2023-03-30T19:53:49.069Z,100.00
2023-03-30T19:56:19.360Z,100.00
2023-03-30T19:58:47.997Z,100.00
2023-03-30T20:01:16.815Z,100.00
2023-03-30T20:03:45.442Z,100.00
2023-03-30T20:06:14.413Z,100.00
2023-03-30T20:08:44.094Z,100.00
2023-03-30T20:11:13.805Z,100.00
2023-03-30T20:13:46.090Z,100.00
2023-03-30T20:16:20.527Z,100.00
2023-03-30T20:18:50.848Z,100.00
2023-03-30T20:21:20.299Z,100.00
2023-03-30T20:23:49.284Z,100.00
2023-03-30T20:26:19.627Z,100.00
2023-03-30T20:28:49.986Z,100.00
2023-03-30T20:31:18.888Z,100.00
2023-03-30T20:33:48.276Z,100.00
2023-03-30T20:36:16.979Z,100.00
2023-03-30T20:38:46.283Z,100.00
2023-03-30T20:41:15.139Z,100.00
2023-03-30T20:43:56.921Z,100.00
2023-03-30T20:46:35.525Z,100.00
2023-03-30T20:49:04.750Z,100.00
2023-03-30T20:51:33.952Z,100.00
2023-03-30T20:54:02.758Z,100.00
2023-03-30T20:56:31.603Z,100.00
2023-03-30T20:59:00.663Z,100.00
2023-03-30T21:01:30.687Z,100.00
2023-03-30T21:04:01.118Z,100.00
2023-03-30T21:06:31.900Z,100.00
2023-03-30T21:09:02.888Z,100.00
2023-03-30T21:11:34.191Z,100.00
2023-03-30T21:14:03.288Z,100.00
2023-03-30T21:16:34.427Z,100.00
2023-03-30T21:19:03.032Z,100.00
2023-03-30T21:21:33.957Z,100.00
2023-03-30T21:24:02.866Z,100.00
2023-03-30T21:26:31.722Z,100.00
2023-03-30T21:29:00.633Z,100.00
2023-03-30T21:31:29.544Z,100.00
2023-03-30T21:34:01.617Z,100.00
2023-03-30T21:36:30.415Z,100.00
2023-03-30T21:39:00.894Z,100.00
2023-03-30T21:41:30.538Z,100.00
2023-03-30T21:43:59.211Z,100.00
2023-03-30T21:46:29.290Z,100.00
2023-03-30T21:48:59.574Z,100.00
2023-03-30T21:51:30.412Z,100.00
2023-03-30T21:54:00.087Z,100.00
2023-03-30T21:56:31.170Z,100.00
2023-03-30T21:59:00.109Z,100.00
2023-03-30T22:01:29.280Z,100.00
2023-03-30T22:03:59.924Z,100.00
2023-03-30T22:06:28.936Z,100.00
2023-03-30T22:08:57.765Z,100.00
2023-03-30T22:11:27.635Z,100.00
2023-03-30T22:13:56.724Z,100.00
2023-03-30T22:16:28.329Z,100.00
2023-03-30T22:18:57.189Z,100.00
2023-03-30T22:21:34.199Z,100.00
2023-03-30T22:24:03.796Z,100.00
2023-03-30T22:26:32.742Z,100.00
2023-03-30T22:29:01.517Z,100.00
2023-03-30T22:31:29.929Z,100.00
2023-03-30T22:33:59.010Z,100.00
2023-03-30T22:36:31.154Z,100.00
2023-03-30T22:39:01.359Z,100.00
2023-03-30T22:41:30.338Z,100.00
2023-03-30T22:44:00.140Z,100.00
2023-03-30T22:46:29.451Z,100.00
2023-03-30T22:49:00.303Z,100.00
2023-03-30T22:51:31.117Z,100.00
2023-03-30T22:54:01.062Z,100.00
2023-03-30T22:56:31.180Z,100.00
2023-03-30T22:59:01.092Z,100.00
2023-03-30T23:01:32.325Z,100.00
2023-03-30T23:04:02.004Z,100.00
2023-03-30T23:06:33.800Z,100.00
2023-03-30T23:09:03.740Z,100.00
2023-03-30T23:11:34.303Z,100.00
2023-03-30T23:14:05.481Z,100.00
2023-03-30T23:16:36.117Z,100.00
2023-03-30T23:19:05.705Z,100.00
2023-03-30T23:21:35.907Z,100.00
2023-03-30T23:24:06.266Z,100.00
2023-03-30T23:26:36.084Z,100.00
2023-03-30T23:29:05.181Z,100.00
2023-03-30T23:31:34.920Z,100.00
2023-03-30T23:34:03.616Z,100.00
2023-03-30T23:36:33.438Z,100.00
2023-03-30T23:39:03.788Z,100.00
2023-03-30T23:41:32.403Z,100.00
2023-03-30T23:44:01.307Z,100.00
2023-03-30T23:46:30.259Z,100.00
2023-03-30T23:48:59.105Z,100.00
2023-03-30T23:51:27.668Z,100.00
2023-03-30T23:54:00.205Z,100.00
2023-03-30T23:56:32.241Z,100.00
2023-03-30T23:59:01.094Z,100.00
